Time;durP1;ratioP1;P1;durP2;ratioP2;P2;SDS_P1;SDS_P2;PMS_P1;PMS_P2;Temp;Humidity;BMP_temperature;BMP_pressure;BME280_temperature;BME280_humidity;BME280_pressure;Samples;Min_cycle;Max_cycle;Signal;HPM_P1;HPM_P2
2022/06/21 00:01:36;;;;;;;1.30;1.20;;;;;;;;;;5077447;28;20204;-57
2022/06/21 00:04:04;;;;;;;1.70;1.10;;;;;;;;;;5077217;28;20201;-57
2022/06/21 00:06:32;;;;;;;1.38;1.27;;;;;;;;;;5077571;28;20201;-57
2022/06/21 00:09:00;;;;;;;1.60;1.40;;;;;;;;;;5077253;28;20500;-57
2022/06/21 00:11:30;;;;;;;1.40;1.25;;;;;;;;;;5076357;28;20731;-57
2022/06/21 00:13:58;;;;;;;1.50;1.35;;;;;;;;;;5076548;28;20222;-57
2022/06/21 00:16:27;;;;;;;1.10;1.10;;;;;;;;;;5077159;28;20293;-57
2022/06/21 00:18:56;;;;;;;1.30;1.20;;;;;;;;;;5077662;28;20266;-58
2022/06/21 00:21:25;;;;;;;1.30;1.20;;;;;;;;;;5077006;28;20208;-57
2022/06/21 00:23:53;;;;;;;1.58;1.25;;;;;;;;;;5077685;28;20204;-57
2022/06/21 00:26:24;;;;;;;1.60;1.17;;;;;;;;;;5077412;28;20201;-57
2022/06/21 00:28:51;;;;;;;1.33;1.10;;;;;;;;;;5077145;28;20204;-57
2022/06/21 00:31:20;;;;;;;1.45;1.30;;;;;;;;;;5077316;28;20579;-59
2022/06/21 00:33:48;;;;;;;1.20;1.15;;;;;;;;;;5078040;28;20499;-57
2022/06/21 00:36:21;;;;;;;1.40;1.23;;;;;;;;;;5080726;28;20259;-57
2022/06/21 00:38:50;;;;;;;1.95;1.20;;;;;;;;;;5080265;28;20266;-57
2022/06/21 00:41:18;;;;;;;1.42;1.20;;;;;;;;;;5081146;28;20486;-57
2022/06/21 00:43:50;;;;;;;1.25;1.13;;;;;;;;;;5080199;28;20210;-57
2022/06/21 00:46:22;;;;;;;1.30;1.20;;;;;;;;;;5079903;28;20204;-57
2022/06/21 00:48:51;;;;;;;1.13;1.05;;;;;;;;;;5080177;28;20526;-57
2022/06/21 00:51:22;;;;;;;1.33;1.23;;;;;;;;;;5080616;28;20204;-57
2022/06/21 00:53:53;;;;;;;1.50;1.40;;;;;;;;;;5079763;28;20601;-57
2022/06/21 00:56:23;;;;;;;3.70;1.05;;;;;;;;;;5081006;28;20627;-57
2022/06/21 00:58:52;;;;;;;1.50;1.30;;;;;;;;;;5080002;28;20193;-57
2022/06/21 01:01:22;;;;;;;2.45;1.05;;;;;;;;;;5080363;28;20437;-57
2022/06/21 01:03:52;;;;;;;1.30;1.20;;;;;;;;;;5080400;28;20295;-57
2022/06/21 01:06:22;;;;;;;1.50;1.33;;;;;;;;;;5080069;28;20207;-59
2022/06/21 01:08:53;;;;;;;1.88;1.40;;;;;;;;;;5079881;28;20204;-57
2022/06/21 01:11:23;;;;;;;1.60;1.42;;;;;;;;;;5079737;28;20205;-57
2022/06/21 01:13:54;;;;;;;1.63;1.13;;;;;;;;;;5080008;28;20469;-57
2022/06/21 01:16:25;;;;;;;1.85;1.33;;;;;;;;;;5079942;28;20615;-57
2022/06/21 01:18:53;;;;;;;2.72;1.40;;;;;;;;;;5080072;28;20212;-57
2022/06/21 01:21:22;;;;;;;2.60;1.20;;;;;;;;;;5079585;28;20739;-57
2022/06/21 01:23:57;;;;;;;1.55;1.40;;;;;;;;;;5080086;28;20638;-57
2022/06/21 01:26:48;;;;;;;2.08;1.20;;;;;;;;;;5059907;28;20200;-57
2022/06/21 01:29:19;;;;;;;1.60;1.50;;;;;;;;;;5044422;28;20638;-57
2022/06/21 01:31:47;;;;;;;1.73;1.50;;;;;;;;;;5059777;28;20309;-57
2022/06/21 01:34:16;;;;;;;1.88;1.30;;;;;;;;;;5059725;28;20248;-57
2022/06/21 01:36:45;;;;;;;1.20;1.10;;;;;;;;;;5079050;28;20250;-57
2022/06/21 01:39:16;;;;;;;2.33;1.35;;;;;;;;;;5080081;28;20382;-57
2022/06/21 01:41:45;;;;;;;1.77;1.67;;;;;;;;;;5078874;28;20204;-57
2022/06/21 01:44:15;;;;;;;2.58;1.40;;;;;;;;;;5079095;28;20845;-57
2022/06/21 01:46:44;;;;;;;1.33;1.23;;;;;;;;;;5078428;28;20208;-57
2022/06/21 01:49:13;;;;;;;1.67;1.30;;;;;;;;;;5079891;28;20295;-57
2022/06/21 01:51:43;;;;;;;1.27;1.17;;;;;;;;;;5079266;28;20231;-57
2022/06/21 01:54:13;;;;;;;1.48;1.38;;;;;;;;;;5078870;28;20668;-57
2022/06/21 01:56:42;;;;;;;2.00;1.38;;;;;;;;;;5079255;28;20232;-57
2022/06/21 01:59:12;;;;;;;1.58;1.48;;;;;;;;;;5079166;28;20287;-57
2022/06/21 02:01:41;;;;;;;2.45;1.50;;;;;;;;;;5079167;28;20215;-57
2022/06/21 02:04:14;;;;;;;1.27;1.23;;;;;;;;;;5079123;28;20491;-57
2022/06/21 02:06:43;;;;;;;1.92;1.50;;;;;;;;;;5078654;28;20200;-57
2022/06/21 02:09:17;;;;;;;1.30;1.20;;;;;;;;;;5078964;28;20605;-58
2022/06/21 02:11:47;;;;;;;1.63;1.52;;;;;;;;;;5078455;28;20239;-57
2022/06/21 02:17:14;;;;;;;2.20;1.40;;;;;;;;;;5078016;28;20232;-57
2022/06/21 02:19:45;;;;;;;1.60;1.50;;;;;;;;;;5079230;28;20204;-57
2022/06/21 02:22:14;;;;;;;1.30;1.20;;;;;;;;;;5078044;28;20265;-57
2022/06/21 02:24:42;;;;;;;1.50;1.40;;;;;;;;;;5077760;28;20302;-57
2022/06/21 02:27:11;;;;;;;1.65;1.30;;;;;;;;;;5078110;28;20581;-58
2022/06/21 02:29:39;;;;;;;1.50;1.40;;;;;;;;;;5078462;28;20224;-58
2022/06/21 02:32:11;;;;;;;1.73;1.50;;;;;;;;;;5078496;28;20211;-58
2022/06/21 02:34:41;;;;;;;2.10;1.40;;;;;;;;;;5077856;28;20208;-59
2022/06/21 02:37:13;;;;;;;2.08;1.20;;;;;;;;;;5078342;28;20627;-59
2022/06/21 02:39:40;;;;;;;1.63;1.20;;;;;;;;;;5078036;28;20253;-58
2022/06/21 02:42:12;;;;;;;2.20;1.27;;;;;;;;;;5077759;28;20239;-59
2022/06/21 02:44:43;;;;;;;1.42;1.33;;;;;;;;;;5077801;28;20204;-59
2022/06/21 02:47:13;;;;;;;1.48;1.17;;;;;;;;;;5078143;28;20589;-59
2022/06/21 02:49:44;;;;;;;2.42;1.40;;;;;;;;;;5078061;28;20545;-59
2022/06/21 02:52:15;;;;;;;2.10;1.50;;;;;;;;;;5078094;28;20235;-59
2022/06/21 02:54:44;;;;;;;1.90;1.45;;;;;;;;;;5077980;28;20579;-57
2022/06/21 02:57:15;;;;;;;1.50;1.40;;;;;;;;;;5076909;28;20232;-57
2022/06/21 02:59:44;;;;;;;1.58;1.23;;;;;;;;;;5077775;28;20204;-59
2022/06/21 03:02:13;;;;;;;2.17;1.40;;;;;;;;;;5078015;28;20203;-57
2022/06/21 03:04:44;;;;;;;1.60;1.50;;;;;;;;;;5077717;28;20204;-59
2022/06/21 03:07:15;;;;;;;1.70;1.60;;;;;;;;;;5077458;28;20231;-59
2022/06/21 03:09:44;;;;;;;1.48;1.38;;;;;;;;;;5077810;28;20292;-58
2022/06/21 03:12:17;;;;;;;1.48;1.38;;;;;;;;;;5076114;28;20224;-59
2022/06/21 03:14:45;;;;;;;1.65;1.55;;;;;;;;;;5077345;28;20208;-59
2022/06/21 03:17:12;;;;;;;2.10;1.40;;;;;;;;;;5077058;28;20254;-57
2022/06/21 03:19:43;;;;;;;2.17;1.73;;;;;;;;;;5077189;28;20266;-59
2022/06/21 03:22:16;;;;;;;1.40;1.30;;;;;;;;;;5077765;28;20204;-59
2022/06/21 03:24:44;;;;;;;1.85;1.50;;;;;;;;;;5076615;28;20507;-59
2022/06/21 03:27:16;;;;;;;1.50;1.35;;;;;;;;;;5077196;28;20223;-57
2022/06/21 03:29:43;;;;;;;2.08;1.48;;;;;;;;;;5077129;28;20204;-61
2022/06/21 03:32:12;;;;;;;1.75;1.50;;;;;;;;;;5077475;28;20242;-57
2022/06/21 03:34:40;;;;;;;1.65;1.55;;;;;;;;;;5077231;28;20269;-59
2022/06/21 03:37:08;;;;;;;1.83;1.58;;;;;;;;;;5077149;28;20239;-59
2022/06/21 03:42:26;;;;;;;1.58;1.48;;;;;;;;;;5077194;28;20277;-59
2022/06/21 03:44:56;;;;;;;1.45;1.35;;;;;;;;;;5076518;28;20196;-59
2022/06/21 03:47:26;;;;;;;1.42;1.33;;;;;;;;;;5076556;28;20197;-59
2022/06/21 03:49:57;;;;;;;1.95;1.60;;;;;;;;;;5076813;28;20462;-59
2022/06/21 03:55:13;;;;;;;1.73;1.63;;;;;;;;;;5076366;28;20611;-59
2022/06/21 03:57:42;;;;;;;1.73;1.45;;;;;;;;;;5076625;28;20227;-59
2022/06/21 04:00:13;;;;;;;2.15;1.42;;;;;;;;;;5076159;28;20281;-57
2022/06/21 04:02:43;;;;;;;1.55;1.42;;;;;;;;;;5076587;28;20215;-59
2022/06/21 04:05:15;;;;;;;1.45;1.30;;;;;;;;;;5077328;28;20591;-57
2022/06/21 04:07:44;;;;;;;1.20;1.20;;;;;;;;;;5076425;28;20219;-58
2022/06/21 04:10:16;;;;;;;1.38;1.27;;;;;;;;;;5078763;28;20204;-58
2022/06/21 04:12:48;;;;;;;1.70;1.60;;;;;;;;;;5080391;28;20228;-57
2022/06/21 04:15:20;;;;;;;1.65;1.55;;;;;;;;;;5080483;28;20477;-57
2022/06/21 04:17:51;;;;;;;1.77;1.67;;;;;;;;;;5080058;28;20228;-57
2022/06/21 04:20:24;;;;;;;1.70;1.60;;;;;;;;;;5080024;28;20223;-57
2022/06/21 04:22:54;;;;;;;1.70;1.60;;;;;;;;;;5080483;28;20215;-59
2022/06/21 04:25:28;;;;;;;1.88;1.77;;;;;;;;;;5079949;28;20270;-57
2022/06/21 04:27:58;;;;;;;1.95;1.85;;;;;;;;;;5079540;28;20458;-57
2022/06/21 04:30:30;;;;;;;2.55;1.98;;;;;;;;;;5079899;28;20204;-57
2022/06/21 04:33:01;;;;;;;3.08;1.88;;;;;;;;;;5079101;28;20292;-57
2022/06/21 04:35:30;;;;;;;2.13;1.90;;;;;;;;;;5078694;28;20214;-59
2022/06/21 04:38:01;;;;;;;2.15;1.83;;;;;;;;;;5078876;28;20224;-57
2022/06/21 04:40:34;;;;;;;1.65;1.55;;;;;;;;;;5079422;28;20204;-57
2022/06/21 04:43:03;;;;;;;2.83;1.80;;;;;;;;;;5079047;28;20274;-58
2022/06/21 04:45:35;;;;;;;2.15;2.05;;;;;;;;;;5078649;28;20232;-57
2022/06/21 04:48:08;;;;;;;1.83;1.73;;;;;;;;;;5078654;28;20219;-59
2022/06/21 04:50:39;;;;;;;2.17;1.80;;;;;;;;;;5078189;28;20219;-57
2022/06/21 04:53:10;;;;;;;2.20;2.00;;;;;;;;;;5078332;28;20241;-57
2022/06/21 04:55:46;;;;;;;1.98;1.83;;;;;;;;;;5079095;28;20660;-57
2022/06/21 04:58:13;;;;;;;2.65;1.88;;;;;;;;;;5078012;28;20231;-57
2022/06/21 05:00:41;;;;;;;1.90;1.80;;;;;;;;;;5077392;28;20823;-57
2022/06/21 05:03:12;;;;;;;2.28;1.90;;;;;;;;;;5077089;28;20208;-57
2022/06/21 05:05:39;;;;;;;2.30;2.10;;;;;;;;;;5076328;28;20192;-57
2022/06/21 05:08:10;;;;;;;2.00;1.80;;;;;;;;;;5076966;28;20295;-57
2022/06/21 05:10:39;;;;;;;1.88;1.77;;;;;;;;;;5077181;28;20293;-57
2022/06/21 05:13:14;;;;;;;2.10;1.80;;;;;;;;;;5077174;28;20326;-58
2022/06/21 05:15:42;;;;;;;1.83;1.73;;;;;;;;;;5076757;28;20204;-57
2022/06/21 05:18:13;;;;;;;2.15;2.00;;;;;;;;;;5076673;28;20623;-57
2022/06/21 05:20:46;;;;;;;2.22;1.77;;;;;;;;;;5075056;28;20203;-58
2022/06/21 05:23:14;;;;;;;1.70;1.60;;;;;;;;;;5076574;28;20299;-57
2022/06/21 05:25:43;;;;;;;3.25;2.00;;;;;;;;;;5077243;28;20730;-58
2022/06/21 05:28:14;;;;;;;2.22;2.03;;;;;;;;;;5077145;28;20204;-58
2022/06/21 05:30:46;;;;;;;2.00;1.80;;;;;;;;;;5077164;28;20695;-57
2022/06/21 05:33:16;;;;;;;2.03;1.92;;;;;;;;;;5077189;28;20204;-58
2022/06/21 05:35:43;;;;;;;2.35;2.00;;;;;;;;;;5077350;28;20200;-57
2022/06/21 05:38:13;;;;;;;1.88;1.73;;;;;;;;;;5076384;28;20587;-58
2022/06/21 05:40:44;;;;;;;2.30;2.00;;;;;;;;;;5076566;28;20207;-58
2022/06/21 05:43:16;;;;;;;2.15;1.98;;;;;;;;;;5076688;28;20208;-57
2022/06/21 05:45:45;;;;;;;2.08;1.90;;;;;;;;;;5076466;28;20265;-57
2022/06/21 05:48:16;;;;;;;2.03;1.65;;;;;;;;;;5077282;28;20211;-57
2022/06/21 05:50:44;;;;;;;2.10;1.90;;;;;;;;;;5075772;28;20204;-58
2022/06/21 05:53:13;;;;;;;2.80;2.30;;;;;;;;;;5076062;28;20200;-57
2022/06/21 05:55:43;;;;;;;2.30;2.10;;;;;;;;;;5076836;28;20204;-57
2022/06/21 05:58:17;;;;;;;2.85;2.10;;;;;;;;;;5076371;28;20224;-57
2022/06/21 06:00:46;;;;;;;2.75;2.17;;;;;;;;;;5075190;28;20197;-57
2022/06/21 06:03:19;;;;;;;1.77;1.67;;;;;;;;;;5076370;28;20232;-57
2022/06/21 06:05:48;;;;;;;1.88;1.65;;;;;;;;;;5075678;28;20265;-58
2022/06/21 06:08:20;;;;;;;1.90;1.80;;;;;;;;;;5075464;28;20247;-58
2022/06/21 06:10:48;;;;;;;1.88;1.77;;;;;;;;;;5075888;28;20208;-58
2022/06/21 06:13:19;;;;;;;2.38;1.75;;;;;;;;;;5076274;28;20228;-57
2022/06/21 06:15:48;;;;;;;2.08;1.88;;;;;;;;;;5077246;28;20212;-58
2022/06/21 06:18:19;;;;;;;2.42;1.90;;;;;;;;;;5075173;28;20769;-57
2022/06/21 06:20:50;;;;;;;3.65;2.03;;;;;;;;;;5075846;28;20255;-57
2022/06/21 06:23:19;;;;;;;2.17;2.00;;;;;;;;;;5075161;28;20211;-57
2022/06/21 06:25:50;;;;;;;3.38;1.98;;;;;;;;;;5076459;28;20364;-57
2022/06/21 06:28:22;;;;;;;2.05;1.85;;;;;;;;;;5075491;28;20200;-58
2022/06/21 06:30:54;;;;;;;2.50;2.30;;;;;;;;;;5076708;28;20210;-58
2022/06/21 06:33:25;;;;;;;2.90;1.80;;;;;;;;;;5076436;28;20212;-58
2022/06/21 06:35:54;;;;;;;3.17;2.03;;;;;;;;;;5076675;28;20550;-58
2022/06/21 06:38:22;;;;;;;3.42;2.22;;;;;;;;;;5075433;28;20228;-57
2022/06/21 06:40:53;;;;;;;2.60;1.88;;;;;;;;;;5076757;28;20204;-58
2022/06/21 06:43:25;;;;;;;2.83;2.10;;;;;;;;;;5076375;28;20219;-58
2022/06/21 06:45:54;;;;;;;2.95;2.15;;;;;;;;;;5075319;28;20212;-57
2022/06/21 06:48:24;;;;;;;3.15;1.90;;;;;;;;;;5075141;28;20232;-58
2022/06/21 06:50:54;;;;;;;2.25;2.03;;;;;;;;;;5075543;28;20204;-58
2022/06/21 06:53:27;;;;;;;3.00;1.90;;;;;;;;;;5073805;28;20201;-57
2022/06/21 06:55:57;;;;;;;4.00;1.73;;;;;;;;;;5074876;28;20626;-58
2022/06/21 06:58:28;;;;;;;2.55;1.63;;;;;;;;;;5088247;28;20220;-58
2022/06/21 07:00:58;;;;;;;1.75;1.65;;;;;;;;;;5094240;28;20208;-58
2022/06/21 07:03:27;;;;;;;2.25;2.03;;;;;;;;;;5078782;28;20196;-58
2022/06/21 07:05:58;;;;;;;3.05;1.83;;;;;;;;;;5056220;28;20204;-58
2022/06/21 07:08:28;;;;;;;2.17;1.80;;;;;;;;;;5057967;28;20267;-57
2022/06/21 07:10:58;;;;;;;2.58;1.60;;;;;;;;;;5065276;28;20305;-58
2022/06/21 07:13:28;;;;;;;2.58;1.95;;;;;;;;;;5075664;28;20231;-57
2022/06/21 07:15:57;;;;;;;3.05;1.95;;;;;;;;;;5089834;28;20752;-58
2022/06/21 07:18:28;;;;;;;2.42;1.70;;;;;;;;;;5085361;28;20509;-57
2022/06/21 07:20:56;;;;;;;2.00;1.80;;;;;;;;;;5075286;28;20243;-58
2022/06/21 07:23:27;;;;;;;3.72;2.05;;;;;;;;;;5075766;28;20232;-58
2022/06/21 07:25:57;;;;;;;2.22;1.88;;;;;;;;;;5077469;28;20192;-58
2022/06/21 07:28:30;;;;;;;2.25;1.70;;;;;;;;;;5075625;28;20502;-57
2022/06/21 07:30:59;;;;;;;2.00;1.80;;;;;;;;;;5075668;28;20215;-58
2022/06/21 07:33:29;;;;;;;3.00;1.90;;;;;;;;;;5075571;28;20211;-58
2022/06/21 07:35:59;;;;;;;2.63;1.75;;;;;;;;;;5074803;28;20298;-58
2022/06/21 07:38:29;;;;;;;1.75;1.60;;;;;;;;;;5074987;28;20331;-58
2022/06/21 07:41:00;;;;;;;2.28;1.63;;;;;;;;;;5074740;28;20270;-57
2022/06/21 07:43:35;;;;;;;3.80;1.70;;;;;;;;;;5074814;28;20600;-57
2022/06/21 07:46:04;;;;;;;3.13;1.75;;;;;;;;;;5079584;28;20210;-57
2022/06/21 07:48:36;;;;;;;1.83;1.50;;;;;;;;;;5079416;28;20207;-58
2022/06/21 07:51:06;;;;;;;1.50;1.40;;;;;;;;;;5078983;28;20254;-58
2022/06/21 07:53:36;;;;;;;2.13;1.73;;;;;;;;;;5078682;28;20303;-58
2022/06/21 07:56:06;;;;;;;1.90;1.63;;;;;;;;;;5078912;28;20203;-58
2022/06/21 07:58:39;;;;;;;3.13;1.77;;;;;;;;;;5077235;28;20607;-58
2022/06/21 08:06:45;;;;;;;1.70;1.55;;;;;;;;;;5077349;28;20253;-58
2022/06/21 08:09:23;;;;;;;2.72;1.50;;;;;;;;;;5077884;28;20262;-58
2022/06/21 08:11:51;;;;;;;1.52;1.40;;;;;;;;;;5077532;28;20636;-58
2022/06/21 08:14:21;;;;;;;2.78;1.70;;;;;;;;;;5077305;28;20295;-58
2022/06/21 08:16:53;;;;;;;2.10;1.23;;;;;;;;;;5077768;28;20295;-58
2022/06/21 08:19:26;;;;;;;1.40;1.30;;;;;;;;;;5077784;28;20225;-58
2022/06/21 08:21:56;;;;;;;2.05;1.60;;;;;;;;;;5077916;28;20227;-58
2022/06/21 08:24:26;;;;;;;1.92;1.60;;;;;;;;;;5069707;28;20219;-58
2022/06/21 08:26:55;;;;;;;1.70;1.52;;;;;;;;;;5057915;28;20263;-58
2022/06/21 08:29:28;;;;;;;1.63;1.48;;;;;;;;;;5057644;28;20209;-58
2022/06/21 08:31:57;;;;;;;2.60;1.40;;;;;;;;;;5057542;28;20208;-58
2022/06/21 08:34:28;;;;;;;2.45;1.40;;;;;;;;;;5058522;28;20208;-58
2022/06/21 08:36:58;;;;;;;2.33;1.70;;;;;;;;;;5077242;28;20200;-58
2022/06/21 08:39:27;;;;;;;2.25;1.63;;;;;;;;;;5077875;28;20234;-58
2022/06/21 08:42:25;;;;;;;1.60;1.45;;;;;;;;;;5077492;28;20208;-58
2022/06/21 08:48:10;;;;;;;1.85;1.58;;;;;;;;;;5077835;28;20191;-57
2022/06/21 08:50:46;;;;;;;1.70;1.50;;;;;;;;;;5077129;28;20201;-58
2022/06/21 08:53:21;;;;;;;1.98;1.70;;;;;;;;;;5077418;28;20206;-57
2022/06/21 08:55:52;;;;;;;1.48;1.33;;;;;;;;;;5077684;28;20204;-58
2022/06/21 08:58:27;;;;;;;1.95;1.65;;;;;;;;;;5077355;28;20597;-58
2022/06/21 09:01:00;;;;;;;1.42;1.30;;;;;;;;;;5077124;28;20200;-58
2022/06/21 09:03:45;;;;;;;1.20;1.10;;;;;;;;;;5075932;28;20200;-58
2022/06/21 09:06:16;;;;;;;1.65;1.50;;;;;;;;;;5077417;28;20291;-58
2022/06/21 09:08:50;;;;;;;2.08;1.42;;;;;;;;;;5076469;28;20200;-58
2022/06/21 09:11:25;;;;;;;3.22;1.63;;;;;;;;;;5076887;28;20203;-58
2022/06/21 09:14:01;;;;;;;1.50;1.40;;;;;;;;;;5077895;28;20211;-58
2022/06/21 09:16:33;;;;;;;3.53;1.67;;;;;;;;;;5076660;28;20626;-58
2022/06/21 09:19:10;;;;;;;2.28;1.45;;;;;;;;;;5077474;28;20235;-58
2022/06/21 09:21:45;;;;;;;1.45;1.35;;;;;;;;;;5077028;28;20235;-58
2022/06/21 09:24:20;;;;;;;2.65;1.70;;;;;;;;;;5075737;28;20666;-58
2022/06/21 09:26:52;;;;;;;2.85;1.58;;;;;;;;;;5076314;28;20212;-58
2022/06/21 09:29:26;;;;;;;3.13;1.30;;;;;;;;;;5076342;28;20208;-58
2022/06/21 09:32:17;;;;;;;2.42;1.60;;;;;;;;;;5077005;28;20205;-58
2022/06/21 09:34:52;;;;;;;2.15;1.25;;;;;;;;;;5057190;28;20208;-58
2022/06/21 09:37:25;;;;;;;2.00;1.52;;;;;;;;;;5075894;28;20203;-58
2022/06/21 09:39:56;;;;;;;4.78;1.55;;;;;;;;;;5075524;28;20228;-58
2022/06/21 09:42:26;;;;;;;1.58;1.48;;;;;;;;;;5075796;28;20212;-58
2022/06/21 09:44:59;;;;;;;1.30;1.20;;;;;;;;;;5075919;28;20894;-58
2022/06/21 09:47:30;;;;;;;2.03;1.42;;;;;;;;;;5075688;28;20232;-58
2022/06/21 09:50:03;;;;;;;2.13;1.20;;;;;;;;;;5075041;28;20196;-58
2022/06/21 09:52:37;;;;;;;1.30;1.20;;;;;;;;;;5075883;28;20270;-58
2022/06/21 09:55:09;;;;;;;1.48;1.30;;;;;;;;;;5074447;28;20295;-58
2022/06/21 09:57:43;;;;;;;2.55;1.48;;;;;;;;;;5075580;28;20200;-58
2022/06/21 10:00:12;;;;;;;2.10;1.30;;;;;;;;;;5075424;28;20288;-58
2022/06/21 10:02:49;;;;;;;2.13;1.40;;;;;;;;;;5075334;28;20208;-58
2022/06/21 10:05:21;;;;;;;1.33;1.23;;;;;;;;;;5075522;28;20547;-58
2022/06/21 10:07:55;;;;;;;1.40;1.30;;;;;;;;;;5073594;28;20243;-58
2022/06/21 10:10:29;;;;;;;3.15;1.40;;;;;;;;;;5074455;28;20200;-58
2022/06/21 10:13:10;;;;;;;1.38;1.27;;;;;;;;;;5074388;28;20983;-58
2022/06/21 10:15:47;;;;;;;1.63;1.35;;;;;;;;;;5074782;28;20492;-58
2022/06/21 10:18:32;;;;;;;1.73;1.33;;;;;;;;;;5074351;28;20226;-58
2022/06/21 10:21:31;;;;;;;2.67;1.70;;;;;;;;;;5074084;28;20195;-58
2022/06/21 10:24:12;;;;;;;1.75;1.35;;;;;;;;;;5074795;28;20250;-58
2022/06/21 10:26:58;;;;;;;2.00;1.40;;;;;;;;;;5074249;28;20212;-58
2022/06/21 10:29:36;;;;;;;1.50;1.40;;;;;;;;;;5074523;28;20207;-58
2022/06/21 10:32:13;;;;;;;2.08;1.40;;;;;;;;;;5074447;28;20251;-58
2022/06/21 10:34:51;;;;;;;2.08;1.45;;;;;;;;;;5074744;28;20195;-58
2022/06/21 10:37:24;;;;;;;1.67;1.45;;;;;;;;;;5074647;28;20303;-58
2022/06/21 10:40:11;;;;;;;2.25;1.42;;;;;;;;;;5074726;28;20340;-58
2022/06/21 10:42:52;;;;;;;1.40;1.30;;;;;;;;;;5074346;28;20211;-58
2022/06/21 10:45:25;;;;;;;2.72;1.30;;;;;;;;;;5074443;28;20211;-58
2022/06/21 10:48:17;;;;;;;1.30;1.20;;;;;;;;;;5074400;28;20238;-58
2022/06/21 10:50:50;;;;;;;1.65;1.30;;;;;;;;;;4999996;28;20261;-58
2022/06/21 10:53:31;;;;;;;1.77;1.35;;;;;;;;;;5074649;28;20216;-58
2022/06/21 10:59:03;;;;;;;2.28;1.40;;;;;;;;;;5017179;28;20709;-58
2022/06/21 11:01:33;;;;;;;1.63;1.40;;;;;;;;;;5074578;28;20200;-58
2022/06/21 11:04:08;;;;;;;3.67;1.60;;;;;;;;;;5074645;28;20200;-58
2022/06/21 11:06:44;;;;;;;1.50;1.40;;;;;;;;;;5073078;28;20246;-58
2022/06/21 11:09:16;;;;;;;1.40;1.30;;;;;;;;;;5072056;28;20196;-58
2022/06/21 11:11:47;;;;;;;1.70;1.60;;;;;;;;;;5073164;28;20232;-58
2022/06/21 11:14:18;;;;;;;1.50;1.40;;;;;;;;;;5072461;28;20204;-58
2022/06/21 11:16:49;;;;;;;2.17;1.20;;;;;;;;;;5072727;28;20250;-58
2022/06/21 11:19:21;;;;;;;2.10;1.50;;;;;;;;;;5071377;28;20515;-58
2022/06/21 11:21:54;;;;;;;2.78;1.25;;;;;;;;;;5071347;28;20239;-58
2022/06/21 11:24:30;;;;;;;1.55;1.30;;;;;;;;;;5073582;28;20609;-59
2022/06/21 11:27:01;;;;;;;1.52;1.42;;;;;;;;;;5073205;28;20243;-58
2022/06/21 11:29:34;;;;;;;1.75;1.33;;;;;;;;;;5072307;28;20388;-58
2022/06/21 11:32:06;;;;;;;1.50;1.40;;;;;;;;;;5072361;28;20282;-58
2022/06/21 11:34:38;;;;;;;1.40;1.30;;;;;;;;;;5071795;28;20201;-58
2022/06/21 11:37:10;;;;;;;1.90;1.50;;;;;;;;;;5071545;28;20299;-59
2022/06/21 11:39:43;;;;;;;1.30;1.20;;;;;;;;;;5072818;28;20323;-58
2022/06/21 11:42:15;;;;;;;1.40;1.30;;;;;;;;;;5072094;28;20295;-58
2022/06/21 11:44:52;;;;;;;1.63;1.38;;;;;;;;;;5071255;28;20286;-58
2022/06/21 11:47:24;;;;;;;2.45;1.42;;;;;;;;;;5071630;28;20227;-58
2022/06/21 11:49:53;;;;;;;1.20;1.10;;;;;;;;;;5071776;28;20547;-58
2022/06/21 11:52:45;;;;;;;1.73;1.23;;;;;;;;;;5070963;28;20239;-58
2022/06/21 11:55:27;;;;;;;1.73;1.50;;;;;;;;;;5070872;28;20204;-58
2022/06/21 11:57:57;;;;;;;1.40;1.30;;;;;;;;;;5069732;28;20227;-58
2022/06/21 12:00:27;;;;;;;1.40;1.30;;;;;;;;;;5071649;28;20638;-58
2022/06/21 12:02:56;;;;;;;1.42;1.30;;;;;;;;;;5071848;28;20204;-58
2022/06/21 12:05:38;;;;;;;2.00;1.30;;;;;;;;;;5071962;28;20592;-58
2022/06/21 12:08:10;;;;;;;1.27;1.17;;;;;;;;;;5072699;28;20246;-58
2022/06/21 12:10:45;;;;;;;1.40;1.20;;;;;;;;;;5072435;28;20192;-66
2022/06/21 12:13:19;;;;;;;1.55;1.20;;;;;;;;;;5074316;28;20236;-58
2022/06/21 12:15:52;;;;;;;1.88;1.30;;;;;;;;;;5073140;28;20250;-58
2022/06/21 12:18:21;;;;;;;1.27;1.17;;;;;;;;;;5073433;28;20495;-58
2022/06/21 12:20:50;;;;;;;1.52;1.20;;;;;;;;;;5073431;28;20263;-58
2022/06/21 12:23:20;;;;;;;1.77;1.20;;;;;;;;;;5072858;28;20212;-58
2022/06/21 12:25:49;;;;;;;1.50;1.30;;;;;;;;;;5072701;28;20200;-58
2022/06/21 12:28:17;;;;;;;1.20;1.15;;;;;;;;;;5072835;28;20231;-58
2022/06/21 12:30:45;;;;;;;1.30;1.20;;;;;;;;;;5074420;28;20235;-58
2022/06/21 12:33:14;;;;;;;1.30;1.20;;;;;;;;;;5076313;28;20622;-58
2022/06/21 12:35:48;;;;;;;1.10;1.00;;;;;;;;;;5076384;28;20731;-58
2022/06/21 12:38:18;;;;;;;1.50;1.20;;;;;;;;;;5076542;28;20203;-58
2022/06/21 12:40:52;;;;;;;2.25;1.27;;;;;;;;;;5077657;28;20238;-58
2022/06/21 12:43:27;;;;;;;1.40;1.20;;;;;;;;;;5075865;28;20203;-58
2022/06/21 12:46:00;;;;;;;1.60;1.15;;;;;;;;;;5075985;28;20662;-58
2022/06/21 12:48:45;;;;;;;2.55;1.13;;;;;;;;;;5075621;28;20193;-58
2022/06/21 12:51:17;;;;;;;1.63;1.10;;;;;;;;;;5075455;28;20228;-58
2022/06/21 12:53:55;;;;;;;1.38;1.27;;;;;;;;;;5075838;28;20212;-58
2022/06/21 12:56:31;;;;;;;1.20;1.10;;;;;;;;;;5076162;28;20204;-58
2022/06/21 12:59:05;;;;;;;1.52;1.10;;;;;;;;;;5075882;28;20196;-57
2022/06/21 13:01:38;;;;;;;1.45;1.10;;;;;;;;;;5076478;28;20208;-58
2022/06/21 13:04:23;;;;;;;1.08;0.98;;;;;;;;;;5076377;28;20242;-58
2022/06/21 13:07:00;;;;;;;1.20;1.10;;;;;;;;;;5075644;28;20204;-58
2022/06/21 13:09:37;;;;;;;1.20;1.10;;;;;;;;;;5076023;28;20195;-58
2022/06/21 13:12:20;;;;;;;1.85;1.10;;;;;;;;;;5076720;28;20614;-58
2022/06/21 13:14:57;;;;;;;1.55;1.25;;;;;;;;;;5075903;28;20193;-58
2022/06/21 13:17:39;;;;;;;0.98;0.98;;;;;;;;;;5076058;28;20204;-58
2022/06/21 13:20:14;;;;;;;2.30;1.17;;;;;;;;;;5075159;28;20256;-58
2022/06/21 13:22:49;;;;;;;1.88;1.15;;;;;;;;;;5075531;28;20239;-57
2022/06/21 13:25:26;;;;;;;1.33;1.10;;;;;;;;;;5076888;28;20250;-58
2022/06/21 13:27:58;;;;;;;2.92;1.10;;;;;;;;;;5075496;28;20196;-58
2022/06/21 13:30:34;;;;;;;1.48;1.00;;;;;;;;;;5076151;28;20325;-58
2022/06/21 13:33:11;;;;;;;1.60;1.20;;;;;;;;;;5075789;28;20644;-57
2022/06/21 13:35:47;;;;;;;1.20;1.00;;;;;;;;;;5076155;28;20243;-60
2022/06/21 13:38:18;;;;;;;1.10;1.00;;;;;;;;;;5074551;28;20196;-57
2022/06/21 13:40:48;;;;;;;1.98;1.15;;;;;;;;;;5074983;28;20264;-59
2022/06/21 13:43:18;;;;;;;2.03;1.10;;;;;;;;;;5073773;28;20235;-57
2022/06/21 13:45:51;;;;;;;1.23;1.00;;;;;;;;;;5074542;28;20645;-60
2022/06/21 13:48:25;;;;;;;1.70;1.10;;;;;;;;;;5075007;28;20204;-59
2022/06/21 13:50:54;;;;;;;2.25;1.00;;;;;;;;;;5074222;28;20300;-59
2022/06/21 13:53:25;;;;;;;0.93;0.90;;;;;;;;;;5073836;28;20234;-58
2022/06/21 13:55:54;;;;;;;1.52;1.00;;;;;;;;;;5074316;28;20204;-60
2022/06/21 13:58:35;;;;;;;1.65;1.20;;;;;;;;;;5074173;28;20211;-59
2022/06/21 14:01:12;;;;;;;1.48;1.30;;;;;;;;;;5074581;28;20311;-59
2022/06/21 14:03:54;;;;;;;1.85;1.13;;;;;;;;;;5074387;28;20200;-60
2022/06/21 14:06:24;;;;;;;1.17;1.05;;;;;;;;;;5072319;28;20196;-58
2022/06/21 14:08:55;;;;;;;1.00;0.90;;;;;;;;;;5074463;28;20435;-59
2022/06/21 14:11:27;;;;;;;1.98;1.10;;;;;;;;;;5073660;28;20193;-59
2022/06/21 14:13:56;;;;;;;1.40;0.98;;;;;;;;;;5074324;28;20204;-57
2022/06/21 14:16:28;;;;;;;1.77;1.23;;;;;;;;;;5073797;28;20253;-59
2022/06/21 14:19:00;;;;;;;3.20;1.33;;;;;;;;;;5074272;28;20266;-58
2022/06/21 14:21:30;;;;;;;1.83;1.20;;;;;;;;;;5073183;28;20299;-57
2022/06/21 14:24:03;;;;;;;2.10;1.20;;;;;;;;;;5073710;28;20270;-58
2022/06/21 14:26:33;;;;;;;1.77;0.90;;;;;;;;;;5073506;28;20250;-57
2022/06/21 14:29:03;;;;;;;1.05;1.00;;;;;;;;;;5071520;28;20239;-58
2022/06/21 14:31:36;;;;;;;1.17;1.08;;;;;;;;;;5070498;28;20453;-58
2022/06/21 14:34:05;;;;;;;1.52;1.00;;;;;;;;;;5070561;28;20295;-58
2022/06/21 14:36:36;;;;;;;1.00;0.90;;;;;;;;;;5070915;28;20232;-57
2022/06/21 14:39:07;;;;;;;1.10;1.00;;;;;;;;;;5071031;28;20278;-58
2022/06/21 14:41:37;;;;;;;1.65;1.10;;;;;;;;;;5071114;28;20256;-58
2022/06/21 14:44:10;;;;;;;1.10;0.90;;;;;;;;;;5072303;28;20831;-59
2022/06/21 14:46:42;;;;;;;1.80;1.10;;;;;;;;;;5071081;28;20208;-58
2022/06/21 14:49:13;;;;;;;0.88;0.88;;;;;;;;;;5073977;28;20260;-57
2022/06/21 14:51:45;;;;;;;1.20;1.10;;;;;;;;;;5072120;28;20188;-57
2022/06/21 14:54:27;;;;;;;1.50;1.00;;;;;;;;;;5074105;28;20204;-57
2022/06/21 14:57:07;;;;;;;1.35;1.08;;;;;;;;;;5058090;28;20204;-57
2022/06/21 14:59:41;;;;;;;1.00;0.90;;;;;;;;;;5073922;28;20603;-57
2022/06/21 15:02:18;;;;;;;0.82;0.80;;;;;;;;;;5073192;28;20215;-57
2022/06/21 15:04:48;;;;;;;1.50;1.00;;;;;;;;;;5072978;28;20200;-58
2022/06/21 15:07:22;;;;;;;1.48;0.80;;;;;;;;;;5073297;28;20338;-57
2022/06/21 15:09:54;;;;;;;0.90;0.90;;;;;;;;;;5073942;28;20203;-58
2022/06/21 15:12:22;;;;;;;1.00;0.90;;;;;;;;;;5072545;28;20228;-58
2022/06/21 15:14:51;;;;;;;0.90;0.88;;;;;;;;;;5073018;28;20269;-58
2022/06/21 15:17:22;;;;;;;2.13;1.00;;;;;;;;;;5074353;28;20278;-57
2022/06/21 15:19:57;;;;;;;1.20;1.10;;;;;;;;;;5074031;28;20204;-57
2022/06/21 15:22:32;;;;;;;1.00;0.90;;;;;;;;;;5073696;28;20215;-57
2022/06/21 15:25:02;;;;;;;0.80;0.80;;;;;;;;;;5069908;28;20274;-58
2022/06/21 15:27:33;;;;;;;1.45;1.00;;;;;;;;;;5073477;28;20204;-57
2022/06/21 15:30:01;;;;;;;2.08;0.90;;;;;;;;;;5073495;28;20204;-57
2022/06/21 15:32:35;;;;;;;2.15;0.80;;;;;;;;;;5073464;28;20247;-57